Terminal Aerodrome Forecast
Issued by NWS Cleveland, OH

Home | Current Version | Previous Version | Text Only | Print | Product List | Glossary On
Versions: 1 2 3 4 5 6 7 8 9 10 11 12 13 14 15 16 17 18 19 20
068
FTUS41 KCLE 011325 AAA
TAFCAK
TAF AMD
KCAK 011325Z 0113/0212 15005KT 4SM BR BKN008 OVC015
     FM011500 17007KT P6SM BKN015
     FM011800 19007KT P6SM VCSH BKN035
     FM020600 21003KT 5SM BR SCT015 BKN050=

USA.gov is the U.S. government's official web portal to all federal, state and local government web resources and services.